Time;durP1;ratioP1;P1;durP2;ratioP2;P2;SDS_P1;SDS_P2;PMS_P1;PMS_P2;Temp;Humidity;BMP_temperature;BMP_pressure;BME280_temperature;BME280_humidity;BME280_pressure;Samples;Min_cycle;Max_cycle;Signal;HPM_P1;HPM_P2
2023/10/09 00:01:46;;;;;;;18.70;5.93;;;;;;;18.36;50.20;98066.28;5031675;28;20238;-70
2023/10/09 00:04:12;;;;;;;27.20;6.00;;;;;;;18.38;50.12;98065.06;5033896;28;20436;-69
2023/10/09 00:06:38;;;;;;;20.27;5.03;;;;;;;18.36;50.11;98058.31;5040556;28;20460;-69
2023/10/09 00:09:30;;;;;;;31.30;6.73;;;;;;;18.34;50.10;98060.31;5029562;28;20451;-71
2023/10/09 00:12:00;;;;;;;20.00;7.00;;;;;;;18.31;50.34;98058.03;5030675;28;20696;-72
2023/10/09 00:14:30;;;;;;;20.43;5.97;;;;;;;18.32;50.00;98051.72;5034788;28;20435;-72
2023/10/09 00:17:03;;;;;;;21.03;6.40;;;;;;;18.34;49.78;98049.69;5031533;28;20438;-71
2023/10/09 00:19:32;;;;;;;29.03;6.70;;;;;;;18.24;50.12;98053.44;5034233;28;20506;-71
2023/10/09 00:22:03;;;;;;;20.23;6.30;;;;;;;18.24;50.14;98052.63;5031526;28;20442;-71
2023/10/09 00:24:29;;;;;;;23.60;5.80;;;;;;;18.23;50.16;98046.50;5030066;28;20449;-71
2023/10/09 00:27:19;;;;;;;20.27;6.57;;;;;;;18.17;50.54;98047.19;5040726;28;20458;-73
2023/10/09 00:29:48;;;;;;;19.07;5.53;;;;;;;18.18;50.48;98048.03;5029722;28;20238;-74
2023/10/09 00:32:27;;;;;;;21.03;6.30;;;;;;;18.14;50.43;98047.59;5033617;28;21229;-71
2023/10/09 00:34:58;;;;;;;21.10;6.07;;;;;;;18.13;50.49;98048.59;5030886;28;20831;-71
2023/10/09 00:37:25;;;;;;;17.83;4.83;;;;;;;18.08;50.49;98038.50;5034925;28;20716;-72
2023/10/09 00:39:57;;;;;;;28.47;5.37;;;;;;;18.07;50.70;98036.88;5029617;28;21013;-73
2023/10/09 00:42:35;;;;;;;26.63;6.40;;;;;;;18.07;50.74;98039.53;5036266;28;20430;-73
2023/10/09 00:45:04;;;;;;;29.53;6.00;;;;;;;18.04;51.04;98036.38;5030671;28;20970;-72
2023/10/09 00:47:34;;;;;;;18.47;5.70;;;;;;;17.97;51.01;98033.63;5029709;28;20487;-70
2023/10/09 00:52:51;;;;;;;23.23;5.47;;;;;;;17.95;51.18;98033.78;5044347;28;20853;-71
2023/10/09 00:58:11;;;;;;;24.47;5.47;;;;;;;17.96;50.99;98024.84;5038919;28;20441;-69
2023/10/09 01:11:21;;;;;;;26.47;5.63;;;;;;;17.82;51.65;98022.97;5029242;28;20450;-71
2023/10/09 01:16:17;;;;;;;26.80;5.67;;;;;;;17.84;51.44;98015.66;5025979;28;20430;-70
2023/10/09 01:18:49;;;;;;;23.27;6.00;;;;;;;17.80;51.66;98019.66;5026149;28;20443;-70
2023/10/09 01:21:15;;;;;;;25.80;6.20;;;;;;;17.82;51.67;98012.34;5030057;28;21025;-70
2023/10/09 01:24:03;;;;;;;29.83;6.20;;;;;;;17.81;51.64;98022.16;5028542;28;20427;-71
2023/10/09 01:26:39;;;;;;;23.73;5.63;;;;;;;17.82;51.69;98022.97;5037731;28;20430;-73
2023/10/09 01:29:14;;;;;;;27.10;5.20;;;;;;;17.81;51.71;98016.84;5045280;28;20426;-70
2023/10/09 01:31:50;;;;;;;22.27;6.03;;;;;;;17.83;51.61;98014.00;5029444;28;20503;-70
2023/10/09 01:34:17;;;;;;;25.57;5.97;;;;;;;17.85;51.56;98017.31;5017971;28;20441;-72
2023/10/09 01:36:42;;;;;;;24.47;6.17;;;;;;;17.86;51.49;98008.34;5037077;28;20433;-71
2023/10/09 01:41:58;;;;;;;30.17;6.77;;;;;;;17.86;51.51;98007.50;5026768;28;20216;-71
2023/10/09 01:44:26;;;;;;;23.40;5.77;;;;;;;17.86;51.55;98013.66;5036440;28;20426;-72
2023/10/09 01:46:54;;;;;;;26.87;5.20;;;;;;;17.90;51.47;98006.97;5013956;28;20783;-73
2023/10/09 01:49:29;;;;;;;17.30;6.17;;;;;;;17.88;51.71;98005.50;5028497;28;20426;-71
2023/10/09 01:51:58;;;;;;;29.80;5.40;;;;;;;17.89;51.79;98002.69;5036575;28;20467;-71
2023/10/09 01:54:36;;;;;;;19.50;5.43;;;;;;;17.87;52.04;97993.25;5035363;28;20430;-71
2023/10/09 01:57:05;;;;;;;23.33;5.57;;;;;;;17.88;52.09;97989.59;5028244;28;20462;-71
2023/10/09 01:59:37;;;;;;;15.90;4.83;;;;;;;17.91;51.82;97987.41;5026865;28;20467;-70
2023/10/09 02:02:15;;;;;;;24.97;5.40;;;;;;;17.94;51.68;97987.06;5033154;28;20445;-73
2023/10/09 02:04:40;;;;;;;25.00;5.13;;;;;;;17.96;51.70;97981.56;5024256;28;20430;-72
2023/10/09 02:07:08;;;;;;;37.93;6.10;;;;;;;17.99;51.57;97985.72;5036823;28;20429;-72
2023/10/09 02:09:34;;;;;;;25.10;6.13;;;;;;;17.96;51.75;97981.56;5031172;28;20229;-69
2023/10/09 02:12:00;;;;;;;20.00;5.67;;;;;;;18.01;51.65;97989.03;5026058;28;20430;-71
2023/10/09 02:14:26;;;;;;;24.17;5.00;;;;;;;18.00;51.65;97982.06;5028473;28;20420;-72
2023/10/09 02:17:17;;;;;;;27.57;5.60;;;;;;;17.95;51.81;97986.06;5027293;28;20432;-72
2023/10/09 02:19:48;;;;;;;33.13;5.00;;;;;;;17.98;51.52;97982.25;5017698;28;20499;-71
2023/10/09 02:22:14;;;;;;;30.93;5.30;;;;;;;17.99;51.66;97972.47;5034689;28;20446;-74
2023/10/09 02:24:50;;;;;;;25.13;4.93;;;;;;;18.00;51.73;97971.47;5036506;28;20418;-70
2023/10/09 02:30:15;;;;;;;25.20;5.53;;;;;;;18.06;51.33;97976.03;5027622;28;20454;-70
2023/10/09 02:32:48;;;;;;;26.57;5.90;;;;;;;18.04;51.00;97976.22;5027841;28;20499;-71
2023/10/09 02:35:28;;;;;;;20.87;5.33;;;;;;;18.02;51.42;97969.47;5038036;28;20513;-69
2023/10/09 02:37:54;;;;;;;18.33;5.10;;;;;;;18.01;51.54;97976.59;5031314;28;20851;-71
2023/10/09 02:40:27;;;;;;;18.60;5.27;;;;;;;18.02;51.44;97970.28;5039396;28;20600;-71
2023/10/09 02:42:53;;;;;;;24.87;5.50;;;;;;;18.02;51.29;97969.47;5034011;28;20432;-71
2023/10/09 02:45:18;;;;;;;26.97;5.43;;;;;;;18.05;50.97;97974.38;5034156;28;20431;-74
2023/10/09 02:47:48;;;;;;;21.40;5.97;;;;;;;18.06;50.70;97971.56;5035303;28;20702;-75
2023/10/09 02:50:20;;;;;;;22.10;5.93;;;;;;;18.07;50.37;97970.56;5035438;28;20735;-69
2023/10/09 02:52:47;;;;;;;16.10;5.03;;;;;;;18.10;50.27;97966.72;5038862;28;20433;-71
2023/10/09 02:55:28;;;;;;;27.33;5.90;;;;;;;18.11;50.55;97971.81;5027506;28;20438;-70
2023/10/09 02:58:06;;;;;;;15.83;5.30;;;;;;;18.11;50.87;97971.81;5034989;28;20833;-71
2023/10/09 03:00:32;;;;;;;18.73;5.70;;;;;;;18.10;51.16;97972.84;5032021;28;20465;-71
2023/10/09 03:02:58;;;;;;;24.43;4.90;;;;;;;18.12;50.90;97975.31;5034118;28;20434;-71
2023/10/09 03:05:28;;;;;;;21.10;5.20;;;;;;;18.17;50.62;97967.63;5027423;28;20453;-70
2023/10/09 03:07:54;;;;;;;22.60;5.00;;;;;;;18.18;50.48;97974.56;5026969;28;20195;-71
2023/10/09 03:10:22;;;;;;;18.13;5.37;;;;;;;18.19;50.57;97970.91;5023835;28;20450;-71
2023/10/09 03:12:52;;;;;;;21.30;5.17;;;;;;;18.21;50.44;97962.81;5037326;28;20410;-70
2023/10/09 03:15:20;;;;;;;24.77;4.93;;;;;;;18.20;50.56;97964.59;5026713;28;20426;-71
2023/10/09 03:17:47;;;;;;;23.63;5.63;;;;;;;18.20;50.56;97967.25;5023131;28;20426;-72
2023/10/09 03:20:12;;;;;;;25.67;6.10;;;;;;;18.20;50.48;97959.31;5027410;28;20484;-71
2023/10/09 03:22:41;;;;;;;16.97;4.83;;;;;;;18.19;50.62;97954.19;5027600;28;20423;-71
2023/10/09 03:25:11;;;;;;;19.13;4.70;;;;;;;18.18;50.63;97945.41;5026216;28;20653;-70
2023/10/09 03:27:41;;;;;;;20.30;5.43;;;;;;;18.21;50.71;97952.19;5028973;28;20426;-72
2023/10/09 03:30:10;;;;;;;28.07;6.33;;;;;;;18.19;50.79;97949.69;5022755;28;20438;-71
2023/10/09 03:32:35;;;;;;;30.03;5.07;;;;;;;18.18;50.83;97940.09;5020622;28;20504;-72
2023/10/09 03:35:03;;;;;;;23.83;5.07;;;;;;;18.21;50.27;97938.94;5034355;28;20430;-71
2023/10/09 03:37:34;;;;;;;27.70;6.03;;;;;;;18.21;49.88;97936.28;5033801;28;20224;-72
2023/10/09 03:40:01;;;;;;;22.57;5.43;;;;;;;18.21;50.78;97936.28;5026758;28;20458;-72
2023/10/09 03:42:26;;;;;;;24.93;5.77;;;;;;;18.24;50.37;97936.72;5031622;28;20526;-71
2023/10/09 03:44:53;;;;;;;26.10;5.20;;;;;;;18.26;50.50;97939.19;5035007;28;20508;-73
2023/10/09 03:47:22;;;;;;;19.37;5.50;;;;;;;18.25;50.62;97935.72;5033655;28;20682;-71
2023/10/09 03:49:53;;;;;;;16.40;5.50;;;;;;;18.25;50.53;97941.03;5026647;28;20418;-71
2023/10/09 03:52:19;;;;;;;29.47;5.63;;;;;;;18.22;50.88;97940.53;5029209;28;20446;-71
2023/10/09 03:54:46;;;;;;;20.87;5.50;;;;;;;18.25;50.68;97941.03;5025573;28;21360;-69
2023/10/09 03:57:19;;;;;;;25.73;5.40;;;;;;;18.23;50.55;97942.19;5029623;28;20192;-71
2023/10/09 03:59:47;;;;;;;28.40;5.90;;;;;;;18.25;50.34;97940.19;5035032;28;20543;-72
2023/10/09 04:02:16;;;;;;;17.30;5.20;;;;;;;18.26;50.76;97939.19;5029342;28;20817;-69
2023/10/09 04:04:46;;;;;;;19.87;5.10;;;;;;;18.22;51.17;97938.72;5024841;28;20913;-68
2023/10/09 04:07:13;;;;;;;20.00;5.67;;;;;;;18.16;51.50;97943.94;5031533;28;20425;-70
2023/10/09 04:09:44;;;;;;;28.63;5.40;;;;;;;18.13;51.57;97939.84;5026168;28;20431;-71
2023/10/09 04:14:36;;;;;;;14.17;5.07;;;;;;;18.16;51.16;97939.44;5033287;28;20426;-70
2023/10/09 04:17:05;;;;;;;26.10;5.53;;;;;;;18.15;50.75;97943.09;5036196;28;20310;-70
2023/10/09 04:19:38;;;;;;;26.53;5.50;;;;;;;18.15;50.80;97932.50;5031411;28;20458;-70
2023/10/09 04:22:07;;;;;;;22.13;5.20;;;;;;;18.16;50.69;97939.44;5038483;28;20445;-70
2023/10/09 04:24:41;;;;;;;19.03;4.77;;;;;;;18.14;50.67;97946.78;5037072;28;20431;-72
2023/10/09 04:27:08;;;;;;;21.97;5.00;;;;;;;18.15;50.81;97935.16;5031739;28;20434;-74
2023/10/09 04:29:39;;;;;;;25.17;5.23;;;;;;;18.09;50.69;97938.53;5040573;28;20428;-70
2023/10/09 04:32:08;;;;;;;28.27;5.90;;;;;;;18.08;50.63;97936.91;5033700;28;20453;-71
2023/10/09 04:34:48;;;;;;;22.07;5.67;;;;;;;18.05;51.02;97935.44;5036596;28;20457;-71
2023/10/09 04:39:46;;;;;;;26.00;5.63;;;;;;;18.00;51.41;97939.66;5029194;28;21147;-71
2023/10/09 04:42:19;;;;;;;30.70;5.67;;;;;;;17.94;51.45;97941.97;5036259;28;20206;-73
2023/10/09 04:47:36;;;;;;;18.17;5.13;;;;;;;17.92;51.84;97941.31;5030644;28;20433;-69
2023/10/09 04:50:09;;;;;;;20.17;5.13;;;;;;;17.91;51.84;97937.03;5040898;28;21056;-70
2023/10/09 04:57:45;;;;;;;17.40;4.67;;;;;;;17.94;50.79;97935.88;5047848;28;20649;-71
2023/10/09 05:02:56;;;;;;;30.20;5.07;;;;;;;17.90;51.15;97935.38;5006286;28;20434;-70
2023/10/09 05:08:19;;;;;;;20.90;5.07;;;;;;;17.96;51.09;97928.53;5021521;28;20985;-71
2023/10/09 05:16:18;;;;;;;14.30;5.27;;;;;;;18.01;50.96;97936.00;5033707;28;20910;-70
2023/10/09 05:18:55;;;;;;;26.87;4.97;;;;;;;18.01;51.26;97939.44;5023378;28;20431;-72
2023/10/09 05:32:03;;;;;;;22.63;4.97;;;;;;;17.88;51.80;97947.19;5029513;28;20489;-72
2023/10/09 05:34:34;;;;;;;20.33;5.67;;;;;;;17.91;51.50;97952.94;5033958;28;20418;-71
2023/10/09 05:37:17;;;;;;;20.77;5.30;;;;;;;17.91;51.84;97952.94;5036202;28;20532;-71
2023/10/09 05:40:08;;;;;;;22.57;5.60;;;;;;;17.90;51.88;97955.78;5031125;28;20460;-71
2023/10/09 05:47:57;;;;;;;15.93;5.10;;;;;;;17.90;52.00;97961.09;5029225;28;20431;-71
2023/10/09 06:08:26;;;;;;;18.10;5.07;;;;;;;18.11;52.32;97952.44;5028730;28;20520;-71
2023/10/09 06:19:31;;;;;;;14.37;5.93;;;;;;;18.26;52.21;97971.84;5023192;28;21053;-73
2023/10/09 06:24:42;;;;;;;25.23;9.27;;;;;;;18.31;52.20;97973.97;5034385;28;20433;-70
2023/10/09 06:27:24;;;;;;;28.57;9.60;;;;;;;18.33;52.29;97971.09;5039426;28;20838;-70
2023/10/09 06:35:15;;;;;;;19.83;5.80;;;;;;;18.40;51.80;97979.97;5019784;28;20179;-69
2023/10/09 06:43:31;;;;;;;17.00;6.30;;;;;;;18.55;50.83;97979.97;5024635;28;20446;-69
2023/10/09 06:45:58;;;;;;;19.47;5.30;;;;;;;18.61;51.01;97983.72;5025368;28;20441;-70
2023/10/09 06:51:07;;;;;;;19.60;6.13;;;;;;;18.75;51.61;97979.38;5039803;28;20526;-69
2023/10/09 06:54:25;;;;;;;29.93;5.60;;;;;;;18.82;51.48;97982.97;5026915;28;20430;-70
2023/10/09 07:01:46;;;;;;;26.90;6.33;;;;;;;18.96;51.71;97990.13;5035752;28;20506;-71
2023/10/09 07:04:19;;;;;;;19.60;5.77;;;;;;;19.00;51.58;97982.59;5034612;28;20749;-71
2023/10/09 07:06:48;;;;;;;19.73;5.40;;;;;;;19.02;51.61;97986.69;5037207;28;20437;-68
2023/10/09 07:09:18;;;;;;;26.50;6.43;;;;;;;19.06;51.81;97992.44;5008955;28;20500;-69
2023/10/09 07:17:04;;;;;;;25.43;6.80;;;;;;;19.16;51.62;97986.84;5026091;28;20791;-68
2023/10/09 07:22:02;;;;;;;17.77;5.83;;;;;;;19.19;51.04;97989.13;5020701;28;21193;-72
2023/10/09 07:24:43;;;;;;;23.30;5.50;;;;;;;19.22;50.84;97985.25;5034269;28;20422;-70
2023/10/09 07:27:14;;;;;;;17.70;4.77;;;;;;;19.25;50.45;97984.88;5027898;28;20429;-69
2023/10/09 07:29:49;;;;;;;19.63;5.47;;;;;;;19.28;50.43;97982.66;5037885;28;20430;-69
2023/10/09 07:32:20;;;;;;;19.00;5.50;;;;;;;19.33;50.47;97990.91;5028387;28;20441;-70
2023/10/09 07:34:53;;;;;;;13.27;5.10;;;;;;;19.41;50.45;97983.81;5019494;28;20418;-70
2023/10/09 07:37:30;;;;;;;19.57;5.70;;;;;;;19.46;50.61;97984.88;5027173;28;20939;-71
2023/10/09 07:40:06;;;;;;;21.03;5.50;;;;;;;19.52;50.23;97985.16;5032520;28;20468;-70
2023/10/09 07:46:29;;;;;;;22.43;5.23;;;;;;;19.57;49.66;97980.06;5028681;28;20475;-70
2023/10/09 07:48:02;;;;;;;15.93;4.30;;;;;;;19.61;49.75;97984.00;5030263;28;20869;-71
2023/10/09 07:53:17;;;;;;;24.70;5.40;;;;;;;19.71;49.57;97992.47;5024694;28;20524;-70
2023/10/09 07:55:53;;;;;;;22.80;4.73;;;;;;;19.75;49.42;97988.41;5015747;28;22137;-70
2023/10/09 07:58:24;;;;;;;18.33;5.00;;;;;;;19.80;49.28;97996.63;5031566;28;20935;-69
2023/10/09 08:01:07;;;;;;;22.50;4.97;;;;;;;19.83;49.07;97991.94;5026087;28;20470;-70
2023/10/09 08:03:34;;;;;;;16.73;4.27;;;;;;;19.88;49.00;97989.56;5033514;28;20525;-70
2023/10/09 08:06:37;;;;;;;22.80;4.97;;;;;;;19.92;49.63;97991.63;5031238;28;20440;-71
2023/10/09 08:17:15;;;;;;;18.07;4.70;;;;;;;20.17;49.58;98007.16;5030817;28;20430;-69
2023/10/09 08:19:55;;;;;;;13.37;4.50;;;;;;;20.24;49.21;98004.53;5038179;28;20577;-69
2023/10/09 08:24:56;;;;;;;16.80;4.30;;;;;;;20.39;48.38;98015.06;5026878;28;20463;-71
2023/10/09 08:27:46;;;;;;;25.10;4.57;;;;;;;20.45;48.00;98011.63;5033620;28;20430;-70
2023/10/09 08:30:28;;;;;;;21.80;4.83;;;;;;;20.52;47.54;98022.31;5033643;28;20422;-70
2023/10/09 08:33:03;;;;;;;17.50;4.77;;;;;;;20.60;47.12;98014.16;5040719;28;20417;-68
2023/10/09 08:35:33;;;;;;;21.40;4.67;;;;;;;20.70;46.91;98009.28;5036784;28;20537;-70
2023/10/09 08:38:10;;;;;;;20.30;4.80;;;;;;;20.80;47.18;98010.78;5038328;28;20462;-72
2023/10/09 08:40:38;;;;;;;19.47;5.00;;;;;;;20.88;47.07;98013.31;5037452;28;20473;-70
2023/10/09 08:43:14;;;;;;;14.87;4.10;;;;;;;20.96;47.26;98023.78;5040466;28;20448;-71
2023/10/09 08:45:44;;;;;;;19.67;4.67;;;;;;;21.05;47.17;98012.94;5030014;28;20457;-70
2023/10/09 08:48:15;;;;;;;17.27;4.67;;;;;;;21.12;47.08;98016.44;5033235;28;20992;-70
2023/10/09 08:50:42;;;;;;;22.97;4.77;;;;;;;21.16;47.37;98010.50;5029526;28;20468;-71
2023/10/09 08:53:09;;;;;;;21.80;5.50;;;;;;;21.22;47.22;98011.56;5042440;28;20425;-70
2023/10/09 08:55:36;;;;;;;19.50;4.43;;;;;;;21.28;47.18;98015.25;5037529;28;20814;-71
2023/10/09 08:58:05;;;;;;;14.03;4.00;;;;;;;21.33;47.05;98013.63;5036930;28;20492;-70
2023/10/09 09:00:33;;;;;;;23.93;4.30;;;;;;;21.37;46.75;98007.91;5028837;28;20479;-71
2023/10/09 09:03:02;;;;;;;20.40;4.57;;;;;;;21.41;46.77;98003.81;5032695;28;20430;-70
2023/10/09 09:05:28;;;;;;;23.50;4.63;;;;;;;21.47;46.52;98019.81;5034052;28;20423;-70
2023/10/09 09:07:59;;;;;;;26.47;5.03;;;;;;;21.54;46.40;98014.50;5031864;28;20430;-69
2023/10/09 09:10:34;;;;;;;18.67;4.63;;;;;;;21.60;46.00;98013.69;5029528;28;20184;-70
2023/10/09 09:13:03;;;;;;;16.93;3.87;;;;;;;21.69;45.96;98016.16;5029701;28;20765;-70
2023/10/09 09:15:30;;;;;;;20.70;4.30;;;;;;;21.74;46.04;98019.84;5037666;28;21231;-71
2023/10/09 09:18:06;;;;;;;17.60;4.50;;;;;;;21.83;45.29;98017.00;5031826;28;20417;-71
2023/10/09 09:20:36;;;;;;;25.83;5.27;;;;;;;21.89;44.23;98019.66;5032807;28;21052;-70
2023/10/09 09:23:05;;;;;;;28.33;4.63;;;;;;;22.00;43.69;98022.75;5033691;28;20565;-71
2023/10/09 09:25:45;;;;;;;21.47;4.20;;;;;;;22.06;42.99;98028.06;5022547;28;20423;-70
2023/10/09 09:28:20;;;;;;;19.20;4.77;;;;;;;22.16;42.83;98022.31;5028647;28;20433;-70
2023/10/09 09:30:50;;;;;;;22.50;4.73;;;;;;;22.24;42.80;98022.09;5042134;28;20490;-72
2023/10/09 09:33:26;;;;;;;14.47;3.77;;;;;;;22.35;42.74;98033.16;5046149;28;20909;-70
2023/10/09 09:35:58;;;;;;;18.80;4.20;;;;;;;22.44;42.41;98026.59;5029037;28;20488;-70
2023/10/09 09:38:27;;;;;;;17.77;3.90;;;;;;;22.55;42.24;98025.97;5028994;28;20469;-71
2023/10/09 09:40:56;;;;;;;28.67;5.30;;;;;;;22.64;42.00;98026.53;5035601;28;20500;-69
2023/10/09 09:43:22;;;;;;;23.40;4.70;;;;;;;22.75;41.54;98026.91;5035294;28;20423;-70
2023/10/09 09:45:49;;;;;;;29.10;5.87;;;;;;;22.82;41.55;98031.22;5029917;28;20438;-70
2023/10/09 09:48:16;;;;;;;16.33;4.07;;;;;;;22.90;41.69;98032.84;5032345;28;20922;-70
2023/10/09 09:50:46;;;;;;;31.17;5.37;;;;;;;22.98;41.31;98029.09;5027154;28;20450;-70
2023/10/09 09:53:18;;;;;;;24.33;4.60;;;;;;;23.05;41.29;98032.59;5036303;28;20427;-69
2023/10/09 09:55:52;;;;;;;22.80;4.70;;;;;;;23.13;41.26;98037.69;5028574;28;20473;-70
2023/10/09 09:58:23;;;;;;;24.87;5.00;;;;;;;23.23;41.29;98033.75;5041021;28;21065;-69
2023/10/09 10:00:53;;;;;;;14.90;4.80;;;;;;;23.33;41.21;98030.59;5038226;28;20454;-70
2023/10/09 10:03:27;;;;;;;25.50;4.83;;;;;;;23.41;nan;98030.34;5032455;28;20932;-70
2023/10/09 10:05:56;;;;;;;19.97;5.00;;;;;;;23.50;40.97;98038.94;5027033;28;20434;-69
2023/10/09 10:08:30;;;;;;;22.90;4.97;;;;;;;23.58;40.82;98033.31;5028213;28;20521;-71
2023/10/09 10:10:58;;;;;;;35.80;5.17;;;;;;;23.68;40.87;98028.34;5030522;28;21002;-68
2023/10/09 10:13:42;;;;;;;35.10;5.20;;;;;;;23.77;40.69;98027.03;5036034;28;20437;-69
2023/10/09 10:16:34;;;;;;;24.00;4.33;;;;;;;23.87;40.79;98025.69;5024916;28;20433;-69
2023/10/09 10:19:07;;;;;;;21.57;5.40;;;;;;;23.99;40.98;98023.19;5038003;28;20469;-70
2023/10/09 10:21:40;;;;;;;25.30;5.80;;;;;;;24.11;40.61;98028.63;5045647;28;20461;-71
2023/10/09 10:24:30;;;;;;;35.30;5.90;;;;;;;24.25;39.58;98034.69;5034024;28;20426;-68
2023/10/09 10:27:18;;;;;;;23.60;4.73;;;;;;;24.39;38.73;98026.28;5033975;28;20950;-69
2023/10/09 10:29:46;;;;;;;26.90;4.70;;;;;;;24.53;37.88;98031.50;5033357;28;20430;-71
2023/10/09 10:32:12;;;;;;;39.50;5.40;;;;;;;24.69;37.08;98033.63;5027673;28;20446;-70
2023/10/09 10:34:47;;;;;;;40.10;6.53;;;;;;;24.87;36.16;98023.94;5028774;28;20423;-70
2023/10/09 10:37:13;;;;;;;29.63;5.33;;;;;;;25.03;35.91;98025.16;5021848;28;20430;-70
2023/10/09 10:40:03;;;;;;;35.10;4.90;;;;;;;25.19;35.69;98021.06;5028183;28;20947;-70
2023/10/09 10:42:57;;;;;;;22.30;5.20;;;;;;;25.31;35.36;98015.72;5033457;28;20630;-70
2023/10/09 10:45:34;;;;;;;40.83;4.73;;;;;;;25.38;35.01;98016.47;5030890;28;20434;-69
2023/10/09 10:48:06;;;;;;;32.70;4.87;;;;;;;25.43;35.13;98013.13;5038607;28;20464;-71
2023/10/09 10:53:15;;;;;;;18.17;4.60;;;;;;;25.42;34.92;97998.88;5042305;28;20924;-70
2023/10/09 10:55:56;;;;;;;35.40;6.13;;;;;;;25.40;35.07;98010.84;5024217;28;20211;-70
2023/10/09 10:58:25;;;;;;;26.00;4.10;;;;;;;25.38;34.78;98002.22;5029938;28;20440;-69
2023/10/09 11:03:35;;;;;;;27.47;5.00;;;;;;;25.35;35.04;98002.66;5032329;28;20530;-70
2023/10/09 11:06:21;;;;;;;22.53;4.60;;;;;;;25.31;35.06;98007.69;5026684;28;20479;-71
2023/10/09 11:09:08;;;;;;;23.67;4.20;;;;;;;25.32;35.05;98013.88;5018172;28;20816;-71
2023/10/09 11:11:41;;;;;;;20.90;5.00;;;;;;;25.34;34.82;98017.13;5015497;28;20467;-70
2023/10/09 11:14:14;;;;;;;21.80;4.07;;;;;;;25.37;34.77;98017.50;5024783;28;20476;-69
2023/10/09 11:16:43;;;;;;;18.60;4.53;;;;;;;25.42;34.99;98016.84;5020882;28;20424;-70
2023/10/09 11:19:54;;;;;;;16.13;4.10;;;;;;;25.49;35.43;98014.06;5034630;28;20421;-70
2023/10/09 11:24:35;;;;;;;17.83;4.50;;;;;;;25.71;35.01;98022.38;5025587;28;20560;-69
2023/10/09 11:27:18;;;;;;;21.70;4.30;;;;;;;25.81;34.85;98022.66;5012926;28;20864;-71
2023/10/09 11:32:18;;;;;;;31.37;5.20;;;;;;;25.90;33.34;98013.19;5025228;28;20453;-70
2023/10/09 11:34:54;;;;;;;23.57;4.07;;;;;;;25.94;32.96;98015.44;5031808;28;20995;-70
2023/10/09 11:39:57;;;;;;;26.70;5.50;;;;;;;25.90;32.50;98004.31;5033136;28;20557;-70
2023/10/09 11:42:48;;;;;;;24.70;4.80;;;;;;;25.86;31.98;97995.91;5033269;28;20530;-71
2023/10/09 11:45:28;;;;;;;14.77;5.00;;;;;;;25.83;31.27;97993.72;5031431;28;21116;-71
2023/10/09 11:47:57;;;;;;;18.57;4.37;;;;;;;25.82;30.94;97992.06;5032154;28;20434;-69
2023/10/09 11:50:52;;;;;;;15.53;4.70;;;;;;;25.77;30.47;97986.56;5025251;28;20504;-70
2023/10/09 11:55:52;;;;;;;17.93;4.87;;;;;;;25.69;29.79;97982.38;5026473;28;20442;-68
2023/10/09 11:58:27;;;;;;;17.80;5.00;;;;;;;25.65;28.81;97997.28;5035075;28;20425;-70
2023/10/09 12:00:56;;;;;;;21.50;5.77;;;;;;;25.62;28.76;97989.72;5040933;28;20470;-69
2023/10/09 12:03:32;;;;;;;18.70;5.10;;;;;;;25.60;28.36;97984.56;5036455;28;20500;-71
2023/10/09 12:06:11;;;;;;;20.23;4.77;;;;;;;25.58;28.60;97986.66;5029778;28;20979;-73
2023/10/09 12:08:37;;;;;;;10.23;4.63;;;;;;;25.59;28.35;97977.56;5027969;28;20515;-70
2023/10/09 12:11:08;;;;;;;15.97;4.90;;;;;;;25.59;28.14;97974.06;5032056;28;20454;-69
2023/10/09 12:13:33;;;;;;;18.90;5.30;;;;;;;25.59;27.44;97977.56;5039217;28;20473;-70
2023/10/09 12:15:59;;;;;;;9.10;4.73;;;;;;;25.60;26.16;97967.66;5028438;28;20431;-69
2023/10/09 12:18:24;;;;;;;14.23;5.30;;;;;;;25.68;26.02;97956.56;5028196;28;20622;-70
2023/10/09 12:20:50;;;;;;;15.70;5.47;;;;;;;25.75;25.01;97954.59;5032610;28;20338;-70
2023/10/09 12:23:20;;;;;;;11.13;5.20;;;;;;;25.81;24.36;97952.03;5033372;28;20214;-70
2023/10/09 12:25:47;;;;;;;20.93;5.43;;;;;;;25.92;24.00;97943.97;5038277;28;20720;-69
2023/10/09 12:28:14;;;;;;;13.53;5.17;;;;;;;26.05;23.88;97939.44;5031430;28;20440;-71
2023/10/09 12:30:40;;;;;;;29.03;5.70;;;;;;;26.15;23.67;97936.19;5037807;28;20958;-70
2023/10/09 12:33:07;;;;;;;15.97;5.30;;;;;;;26.42;23.64;97924.88;5028091;28;20435;-70
2023/10/09 12:35:36;;;;;;;24.67;5.73;;;;;;;26.78;23.79;97929.13;5036724;28;20430;-69
2023/10/09 12:38:03;;;;;;;14.90;5.17;;;;;;;27.16;22.09;97913.38;5029790;28;20784;-69
2023/10/09 12:40:31;;;;;;;15.03;5.20;;;;;;;27.56;21.23;97907.06;5032398;28;20463;-70
2023/10/09 12:43:00;;;;;;;13.90;5.80;;;;;;;27.94;21.16;97901.97;5037590;28;20421;-70
2023/10/09 12:45:26;;;;;;;17.40;5.23;;;;;;;28.16;19.87;97915.50;5034485;28;20525;-70
2023/10/09 12:47:58;;;;;;;12.03;5.23;;;;;;;28.34;19.90;97914.38;5028502;28;20422;-71
2023/10/09 12:50:33;;;;;;;14.00;5.47;;;;;;;28.46;19.82;97908.03;5030440;28;20413;-71
2023/10/09 12:53:02;;;;;;;21.97;5.27;;;;;;;28.54;19.92;97910.28;5038477;28;20431;-71
2023/10/09 12:55:31;;;;;;;13.20;5.20;;;;;;;28.69;19.77;97911.53;5028368;28;20429;-70
2023/10/09 12:58:01;;;;;;;10.20;5.37;;;;;;;28.79;19.89;97912.50;5025080;28;20430;-70
2023/10/09 13:00:32;;;;;;;14.77;5.23;;;;;;;28.81;20.01;97920.31;5026705;28;20458;-70
2023/10/09 13:03:00;;;;;;;12.90;5.73;;;;;;;28.78;20.15;97928.91;5028132;28;20452;-70
2023/10/09 13:05:26;;;;;;;14.70;5.23;;;;;;;28.67;19.70;97925.25;5027852;28;20434;-70
2023/10/09 13:07:56;;;;;;;10.00;5.67;;;;;;;28.61;19.64;97924.38;5030453;28;20461;-69
2023/10/09 13:10:23;;;;;;;11.60;5.73;;;;;;;28.55;20.09;97921.88;5033619;28;20494;-70
2023/10/09 13:12:55;;;;;;;10.93;5.37;;;;;;;28.50;20.55;97930.72;5031065;28;20439;-69
2023/10/09 13:15:22;;;;;;;16.13;6.47;;;;;;;28.57;20.25;97927.81;5026859;28;20423;-70
2023/10/09 13:17:47;;;;;;;13.57;5.67;;;;;;;28.70;20.45;97930.13;5027395;28;20418;-70
2023/10/09 13:20:12;;;;;;;12.30;6.00;;;;;;;28.73;20.72;97920.78;5033070;28;20470;-68
2023/10/09 13:22:42;;;;;;;14.33;5.53;;;;;;;28.85;21.37;97913.34;5025900;28;20230;-71
2023/10/09 13:25:16;;;;;;;12.30;6.17;;;;;;;28.95;18.73;97916.16;5026404;28;20196;-71
2023/10/09 13:27:42;;;;;;;15.13;5.70;;;;;;;29.14;19.39;97910.38;5029599;28;20439;-72
2023/10/09 13:30:09;;;;;;;10.70;5.20;;;;;;;29.30;19.57;97913.22;5034329;28;21040;-70
2023/10/09 13:32:35;;;;;;;12.90;5.37;;;;;;;29.42;18.56;97903.06;5028824;28;20809;-71
2023/10/09 13:35:05;;;;;;;11.10;5.40;;;;;;;29.52;17.83;97908.53;5034516;28;20426;-71
2023/10/09 13:37:36;;;;;;;9.20;5.40;;;;;;;29.58;17.38;97906.69;5033709;28;20274;-70
2023/10/09 13:40:11;;;;;;;11.27;5.40;;;;;;;29.70;18.01;97903.81;5035435;28;20873;-73
2023/10/09 13:42:37;;;;;;;15.23;5.90;;;;;;;29.81;17.30;97905.50;5028464;28;20469;-70
2023/10/09 13:45:15;;;;;;;9.70;5.43;;;;;;;29.93;17.47;97912.59;5033274;28;20440;-70
2023/10/09 13:47:44;;;;;;;9.73;5.70;;;;;;;30.09;17.51;97910.81;5030813;28;20493;-71
2023/10/09 13:50:10;;;;;;;15.10;5.30;;;;;;;30.17;16.84;97897.59;5027953;28;20597;-68
2023/10/09 13:52:39;;;;;;;16.23;6.00;;;;;;;30.27;16.77;97890.63;5026995;28;20557;-69
2023/10/09 13:55:16;;;;;;;11.70;5.53;;;;;;;30.34;16.84;97891.19;5034054;28;20740;-71
2023/10/09 13:57:45;;;;;;;18.40;6.30;;;;;;;30.40;16.66;97881.22;5026440;28;20517;-69
2023/10/09 14:00:32;;;;;;;10.83;5.40;;;;;;;30.36;16.74;97883.66;5029821;28;20512;-71
2023/10/09 14:03:01;;;;;;;7.93;5.00;;;;;;;30.44;16.20;97885.00;5027660;28;20438;-71
2023/10/09 14:05:27;;;;;;;11.17;5.77;;;;;;;30.36;15.87;97872.84;5032065;28;20493;-70
2023/10/09 14:07:57;;;;;;;11.37;5.70;;;;;;;30.42;15.90;97869.06;5030917;28;20437;-70
2023/10/09 14:10:26;;;;;;;13.60;6.07;;;;;;;30.39;15.28;97866.88;5033237;28;20479;-70
2023/10/09 14:12:54;;;;;;;10.20;6.33;;;;;;;30.34;15.77;97866.88;5028089;28;20431;-71
2023/10/09 14:15:19;;;;;;;13.03;6.43;;;;;;;30.22;15.59;97877.91;5028308;28;20554;-71
2023/10/09 14:17:46;;;;;;;11.30;5.33;;;;;;;30.10;15.23;97874.59;5033991;28;20425;-71